Time;durP1;ratioP1;P1;durP2;ratioP2;P2;SDS_P1;SDS_P2;PMS_P1;PMS_P2;Temp;Humidity;BMP_temperature;BMP_pressure;BME280_temperature;BME280_humidity;BME280_pressure;Samples;Min_cycle;Max_cycle;Signal;HPM_P1;HPM_P2
2022/11/03 00:01:09;;;;;;;8.07;3.08;;;;;;;12.76;56.06;100332.28;5053162;28;20049;-59
2022/11/03 00:03:39;;;;;;;7.28;2.30;;;;;;;12.82;55.71;100328.16;5049104;28;20048;-59
2022/11/03 00:06:08;;;;;;;11.85;2.88;;;;;;;12.85;55.94;100310.75;5033190;28;20045;-60
2022/11/03 00:08:38;;;;;;;7.50;2.78;;;;;;;12.68;56.54;100306.03;5035429;28;20053;-60
2022/11/03 00:11:07;;;;;;;8.00;2.75;;;;;;;12.75;56.28;100300.72;5033369;28;20478;-60
2022/11/03 00:13:37;;;;;;;9.05;2.53;;;;;;;12.84;56.75;100297.91;5044097;28;20053;-60
2022/11/03 00:16:05;;;;;;;6.53;2.30;;;;;;;12.72;57.19;100303.34;5053019;28;20505;-60
2022/11/03 00:18:32;;;;;;;11.68;2.83;;;;;;;12.73;57.23;100313.41;5036425;28;20064;-60
2022/11/03 00:21:01;;;;;;;8.80;2.60;;;;;;;12.75;57.28;100311.91;5032492;28;20049;-60
2022/11/03 00:23:32;;;;;;;7.77;2.50;;;;;;;12.66;58.10;100324.25;5033045;28;20502;-60
2022/11/03 00:26:10;;;;;;;11.50;3.17;;;;;;;12.66;58.29;100308.31;5033321;28;20485;-60
2022/11/03 00:28:38;;;;;;;7.77;2.90;;;;;;;12.72;57.85;100306.16;5053015;28;20053;-60
2022/11/03 00:31:10;;;;;;;7.57;2.65;;;;;;;12.72;57.82;100320.13;5040969;28;20060;-60
2022/11/03 00:33:38;;;;;;;10.02;3.35;;;;;;;12.76;58.12;100318.31;5052682;28;20060;-60
2022/11/03 00:36:07;;;;;;;9.52;3.10;;;;;;;12.79;58.20;100312.06;5046096;28;20484;-60
2022/11/03 00:38:39;;;;;;;10.07;2.80;;;;;;;12.76;58.36;100315.50;5044944;28;20057;-60
2022/11/03 00:41:07;;;;;;;10.55;3.00;;;;;;;12.67;59.02;100306.34;5036530;28;20057;-60
2022/11/03 00:43:35;;;;;;;7.78;2.53;;;;;;;12.68;59.18;100308.81;5032559;28;20053;-59
2022/11/03 00:46:06;;;;;;;7.78;2.70;;;;;;;12.74;58.76;100306.66;5031468;28;20049;-60
2022/11/03 00:48:35;;;;;;;9.02;2.95;;;;;;;12.69;59.48;100306.84;5043720;28;20060;-60
2022/11/03 00:51:08;;;;;;;7.53;2.47;;;;;;;12.76;58.60;100295.94;5034284;28;20486;-59
2022/11/03 00:53:38;;;;;;;9.30;2.50;;;;;;;12.87;58.69;100297.25;5032562;28;20060;-60
2022/11/03 00:56:08;;;;;;;10.80;2.33;;;;;;;12.85;58.31;100299.56;5048777;28;20056;-60
2022/11/03 00:58:35;;;;;;;9.95;2.70;;;;;;;12.80;58.85;100296.94;5032389;28;20065;-60
2022/11/03 01:01:04;;;;;;;7.25;2.70;;;;;;;12.76;58.76;100290.34;5032807;28;20053;-59
2022/11/03 01:03:32;;;;;;;8.55;2.55;;;;;;;12.79;59.10;100298.09;5032470;28;20482;-59
2022/11/03 01:08:46;;;;;;;9.25;3.13;;;;;;;12.81;59.19;100295.78;5034503;28;20521;-60
2022/11/03 01:14:00;;;;;;;7.78;2.50;;;;;;;12.74;59.30;100292.66;5038272;28;20513;-59
2022/11/03 01:16:29;;;;;;;8.30;2.00;;;;;;;12.77;59.47;100292.00;5034387;28;20270;-61
2022/11/03 01:18:57;;;;;;;8.30;2.65;;;;;;;12.74;60.08;100293.47;5047978;28;20053;-61
2022/11/03 01:21:24;;;;;;;5.72;1.88;;;;;;;12.80;59.49;100283.75;5034961;28;20916;-59
2022/11/03 01:23:53;;;;;;;7.32;2.17;;;;;;;12.81;59.41;100281.81;5041157;28;20045;-59
2022/11/03 01:26:21;;;;;;;6.80;2.17;;;;;;;12.85;59.56;100293.97;5048294;28;20050;-60
2022/11/03 01:28:50;;;;;;;8.90;2.30;;;;;;;12.82;59.83;100277.84;5039066;28;20049;-59
2022/11/03 01:31:20;;;;;;;6.68;2.25;;;;;;;12.74;60.29;100271.13;5041870;28;20057;-61
2022/11/03 01:33:49;;;;;;;;;;;;;;;12.94;59.63;100277.97;5038585;28;20482;-60
2022/11/03 01:36:17;;;;;;;7.88;2.00;;;;;;;12.91;59.09;100270.22;5039686;28;19928;-60
2022/11/03 01:38:47;;;;;;;7.20;2.17;;;;;;;13.00;59.94;100268.25;5046659;28;20060;-60
2022/11/03 01:41:18;;;;;;;10.05;2.83;;;;;;;12.89;60.21;100272.56;5043120;28;20056;-60
2022/11/03 01:43:49;;;;;;;8.32;1.98;;;;;;;13.04;59.37;100268.41;5031969;28;20076;-60
2022/11/03 01:46:23;;;;;;;7.63;2.53;;;;;;;12.93;59.99;100270.72;5037094;28;20048;-60
2022/11/03 01:48:57;;;;;;;7.35;2.22;;;;;;;12.99;59.71;100258.19;5046792;28;20052;-61
2022/11/03 01:51:26;;;;;;;7.55;2.40;;;;;;;12.98;59.64;100253.78;5050238;28;20065;-60
2022/11/03 01:53:59;;;;;;;9.15;2.03;;;;;;;13.03;60.04;100244.38;5050825;28;20052;-61
2022/11/03 01:56:32;;;;;;;7.10;2.05;;;;;;;13.03;59.75;100244.38;5038429;28;20045;-59
2022/11/03 01:58:59;;;;;;;8.32;2.50;;;;;;;13.12;59.60;100261.09;5048001;28;20059;-56
2022/11/03 02:04:09;;;;;;;10.15;2.50;;;;;;;13.04;60.42;100234.84;5375909;22;20069;-77
2022/11/03 02:06:37;;;;;;;9.10;2.42;;;;;;;13.16;60.20;100236.91;5006432;28;20057;-81
2022/11/03 02:09:08;;;;;;;10.88;2.30;;;;;;;13.14;59.79;100234.44;5011947;28;20076;-79
2022/11/03 02:14:32;;;;;;;6.68;2.38;;;;;;;13.06;60.14;100228.91;4992235;28;20049;-80
2022/11/03 02:17:04;;;;;;;7.97;2.20;;;;;;;13.09;60.08;100231.03;5011317;28;20050;-79
2022/11/03 02:19:35;;;;;;;7.85;2.45;;;;;;;13.14;59.82;100226.03;5011575;28;20049;-79
2022/11/03 02:22:22;;;;;;;5.90;2.53;;;;;;;13.11;60.22;100218.34;5012052;28;20060;-80
2022/11/03 02:24:52;;;;;;;9.32;2.30;;;;;;;12.90;61.43;100212.69;4996018;28;20390;-79
2022/11/03 02:27:25;;;;;;;;;;;;;;;12.95;60.92;100209.69;5012837;28;20401;-79
2022/11/03 02:29:53;;;;;;;7.85;2.67;;;;;;;12.97;60.43;100207.38;5011155;28;19922;-78
2022/11/03 02:32:25;;;;;;;9.35;2.60;;;;;;;12.85;61.52;100204.53;5013474;28;20058;-79
2022/11/03 02:35:02;;;;;;;8.52;2.58;;;;;;;12.80;62.03;100193.50;5006809;28;20069;-79
2022/11/03 02:37:33;;;;;;;9.40;2.10;;;;;;;12.88;61.26;100186.25;4997984;28;20053;-79
2022/11/03 02:40:07;;;;;;;9.50;2.95;;;;;;;12.82;61.49;100180.03;5012919;28;20049;-79
2022/11/03 02:42:37;;;;;;;7.28;2.42;;;;;;;12.63;62.72;100176.84;5025252;28;20026;-82
2022/11/03 02:45:12;;;;;;;8.50;2.35;;;;;;;12.73;61.74;100174.47;5035912;28;20068;-80
2022/11/03 02:47:41;;;;;;;7.38;2.17;;;;;;;12.75;61.81;100182.53;5035794;28;20050;-80
2022/11/03 02:50:10;;;;;;;4.93;1.85;;;;;;;12.75;62.59;100166.56;5036532;28;20054;-78
2022/11/03 02:52:40;;;;;;;9.45;2.50;;;;;;;12.69;62.59;100161.53;5037228;28;20046;-79
2022/11/03 02:55:15;;;;;;;8.00;2.40;;;;;;;12.70;62.11;100160.34;5036457;28;20030;-81
2022/11/03 02:57:50;;;;;;;6.18;2.60;;;;;;;12.69;62.88;100148.34;5035184;28;20061;-79
2022/11/03 03:00:18;;;;;;;6.47;2.20;;;;;;;12.58;62.51;100164.69;5036617;28;20038;-78
2022/11/03 03:02:54;;;;;;;8.07;2.72;;;;;;;12.69;62.53;100151.16;5028350;28;20052;-78
2022/11/03 03:05:25;;;;;;;7.78;2.33;;;;;;;12.79;62.77;100149.97;5036691;28;20034;-78
2022/11/03 03:07:58;;;;;;;10.27;1.95;;;;;;;12.75;62.46;100140.63;5026957;28;20055;-78
2022/11/03 03:10:31;;;;;;;8.25;2.45;;;;;;;12.71;62.72;100131.25;5013487;28;20414;-79
2022/11/03 03:13:03;;;;;;;9.82;2.55;;;;;;;12.75;62.41;100138.63;5011085;28;20046;-78
2022/11/03 03:15:40;;;;;;;8.38;2.90;;;;;;;12.50;63.58;100145.19;5014635;28;20054;-78
2022/11/03 03:18:16;;;;;;;7.80;2.45;;;;;;;12.55;63.06;100140.19;5014146;28;20066;-78
2022/11/03 03:20:51;;;;;;;8.63;2.10;;;;;;;12.58;62.82;100124.75;5014974;28;20060;-78
2022/11/03 03:23:21;;;;;;;12.32;2.70;;;;;;;12.55;63.40;100139.38;5014614;28;20058;-77
2022/11/03 03:25:53;;;;;;;12.15;2.50;;;;;;;12.47;63.12;100143.84;5014518;28;20058;-78
2022/11/03 03:28:26;;;;;;;7.22;2.05;;;;;;;12.52;63.51;100128.91;5013470;28;20050;-79
2022/11/03 03:30:56;;;;;;;6.95;2.00;;;;;;;12.59;63.51;100112.41;5014275;28;20053;-80
2022/11/03 03:33:26;;;;;;;6.47;2.22;;;;;;;12.53;63.64;100108.97;5014009;28;20482;-78
2022/11/03 03:35:59;;;;;;;8.27;2.72;;;;;;;12.48;63.50;100111.97;5014424;28;20470;-78
2022/11/03 03:38:32;;;;;;;7.07;2.20;;;;;;;12.52;63.75;100110.16;5012632;28;20486;-78
2022/11/03 03:41:01;;;;;;;5.70;2.13;;;;;;;12.53;63.30;100122.13;5008563;28;20525;-79
2022/11/03 03:43:33;;;;;;;9.82;2.20;;;;;;;12.66;63.08;100111.88;5011849;28;20386;-78
2022/11/03 03:46:09;;;;;;;7.72;2.38;;;;;;;12.69;62.95;100111.22;5013947;28;20054;-78
2022/11/03 03:48:36;;;;;;;12.00;2.55;;;;;;;12.57;63.24;100101.56;5014307;28;20057;-78
2022/11/03 03:51:06;;;;;;;6.32;2.00;;;;;;;12.75;62.54;100088.31;5014278;28;20054;-78
2022/11/03 03:53:34;;;;;;;7.85;2.28;;;;;;;12.64;63.53;100092.69;5013954;28;20421;-78
2022/11/03 03:56:04;;;;;;;6.78;2.13;;;;;;;12.64;63.55;100097.44;5014684;28;20061;-78
2022/11/03 03:58:36;;;;;;;11.10;2.40;;;;;;;12.74;63.23;100094.25;5012670;28;20046;-78
2022/11/03 04:01:03;;;;;;;8.25;3.28;;;;;;;12.66;63.73;100100.69;5013087;28;20064;-78
2022/11/03 04:03:30;;;;;;;8.07;2.00;;;;;;;12.70;62.91;100084.91;5013648;28;20058;-78
2022/11/03 04:05:57;;;;;;;9.55;2.50;;;;;;;12.73;62.94;100084.25;5002487;28;20061;-78
2022/11/03 04:08:24;;;;;;;7.93;2.50;;;;;;;12.75;63.22;100073.53;4994405;28;20509;-78
2022/11/03 04:24:46;;;;;;;8.35;2.20;;;;;;;12.79;62.86;100068.91;5020161;28;20069;-80
2022/11/03 04:27:30;;;;;;;7.20;1.90;;;;;;;12.84;63.32;100071.50;5011846;28;20061;-80
2022/11/03 04:30:10;;;;;;;8.38;2.28;;;;;;;12.71;62.96;100065.00;5010379;28;20049;-80
2022/11/03 04:32:37;;;;;;;7.80;1.90;;;;;;;12.78;62.60;100070.06;5013163;28;20054;-80
2022/11/03 04:35:15;;;;;;;6.88;2.17;;;;;;;12.77;62.93;100060.84;5013209;28;20474;-80
2022/11/03 04:37:42;;;;;;;5.38;2.00;;;;;;;12.86;62.84;100063.59;5013467;28;20061;-80
2022/11/03 04:40:15;;;;;;;7.47;2.45;;;;;;;12.83;62.69;100055.91;5012424;28;20061;-80
2022/11/03 04:42:43;;;;;;;10.00;2.28;;;;;;;12.88;62.54;100052.88;5013542;28;20057;-80
2022/11/03 04:45:26;;;;;;;8.32;2.05;;;;;;;12.79;62.50;100063.31;5011689;28;20390;-80
2022/11/03 04:47:58;;;;;;;5.78;2.20;;;;;;;12.82;62.44;100043.06;5012388;28;20444;-80
2022/11/03 04:50:26;;;;;;;7.47;1.92;;;;;;;12.68;62.79;100054.53;5012207;28;20050;-80
2022/11/03 04:52:58;;;;;;;6.63;2.10;;;;;;;12.69;63.48;100046.94;5013343;28;20054;-80
2022/11/03 04:55:26;;;;;;;6.00;1.85;;;;;;;12.62;63.54;100035.47;5012446;28;20049;-78
2022/11/03 04:57:57;;;;;;;8.07;2.38;;;;;;;12.72;63.13;100021.09;5012584;28;20054;-81
2022/11/03 05:00:25;;;;;;;7.47;2.30;;;;;;;12.70;63.07;100023.41;5012544;28;20062;-80
2022/11/03 05:02:53;;;;;;;8.35;2.30;;;;;;;12.77;62.45;100013.34;5014947;28;20053;-79
2022/11/03 05:05:48;;;;;;;7.45;2.38;;;;;;;12.75;62.97;100026.03;5013550;28;20049;-79
2022/11/03 05:08:24;;;;;;;6.53;2.10;;;;;;;12.72;63.22;100010.75;5018577;28;20060;-79
2022/11/03 05:12:02;;;;;;;;;;;;;;;;;;;;;
2022/11/03 05:23:16;;;;;;;10.43;2.45;;;;;;;12.91;62.07;100007.47;4935701;29;20612;-80
2022/11/03 06:10:35;;;;;;;7.30;2.10;;;;;;;13.45;61.29;99947.09;4920642;28;20151;-79
2022/11/03 06:13:11;;;;;;;8.02;2.15;;;;;;;13.32;61.23;99952.66;4956801;28;20054;-79
2022/11/03 06:15:40;;;;;;;6.35;2.28;;;;;;;13.42;60.99;99931.00;4954683;28;20055;-79
2022/11/03 06:18:14;;;;;;;6.72;2.13;;;;;;;13.40;61.89;99929.38;4955829;28;20061;-79
2022/11/03 06:20:42;;;;;;;9.05;2.38;;;;;;;13.49;60.79;99942.47;4963257;28;20054;-79
2022/11/03 06:23:15;;;;;;;5.90;2.47;;;;;;;13.38;61.39;99948.50;4964934;28;20062;-79
2022/11/03 06:25:44;;;;;;;4.93;1.92;;;;;;;13.43;60.88;99927.88;4956444;28;20050;-79
2022/11/03 06:28:18;;;;;;;9.15;2.30;;;;;;;13.44;60.91;99935.13;4960673;28;20057;-79
2022/11/03 06:30:46;;;;;;;5.40;1.88;;;;;;;13.44;61.53;99934.28;4957013;28;20051;-79
2022/11/03 06:33:16;;;;;;;9.07;2.38;;;;;;;13.46;60.88;99920.75;4954737;28;20062;-79
2022/11/03 06:35:44;;;;;;;6.00;2.08;;;;;;;13.44;61.25;99925.88;4944857;29;20062;-80
2022/11/03 06:38:16;;;;;;;8.20;2.75;;;;;;;13.50;60.62;99944.06;4953196;28;20066;-81
2022/11/03 06:40:45;;;;;;;9.02;2.55;;;;;;;13.62;60.52;99941.31;4954958;28;20504;-81
2022/11/03 06:43:20;;;;;;;5.78;2.03;;;;;;;13.65;59.67;99929.44;4953001;28;20063;-81
2022/11/03 06:45:50;;;;;;;8.23;2.30;;;;;;;13.71;60.03;99927.19;4953862;29;20062;-81
2022/11/03 06:48:24;;;;;;;7.35;2.45;;;;;;;13.69;60.32;99935.13;4948618;29;20059;-79
2022/11/03 06:50:52;;;;;;;10.65;2.53;;;;;;;13.74;60.28;99924.53;4954142;29;20055;-80
2022/11/03 06:53:23;;;;;;;7.93;1.95;;;;;;;13.72;60.45;99907.25;4955189;29;20055;-79
2022/11/03 06:55:54;;;;;;;9.30;2.50;;;;;;;13.70;60.05;99897.59;4950820;29;20160;-82
2022/11/03 06:58:28;;;;;;;8.00;2.53;;;;;;;13.69;59.98;99893.97;4951262;28;20090;-80
2022/11/03 07:00:58;;;;;;;6.13;1.90;;;;;;;13.80;59.72;99899.91;4958838;28;20511;-80
2022/11/03 07:03:30;;;;;;;5.85;2.08;;;;;;;13.74;60.49;99909.72;4956934;28;20062;-80
2022/11/03 07:05:59;;;;;;;6.80;2.60;;;;;;;13.75;60.56;99895.38;4953970;28;20075;-80
2022/11/03 07:08:29;;;;;;;7.32;1.98;;;;;;;13.90;60.07;99896.66;4950829;28;20515;-80
2022/11/03 07:11:02;;;;;;;7.25;2.67;;;;;;;13.96;59.92;99877.63;4947987;28;20107;-80
2022/11/03 07:13:32;;;;;;;5.43;1.83;;;;;;;13.94;58.73;99872.38;4939319;28;20052;-80
2022/11/03 07:16:00;;;;;;;5.80;1.92;;;;;;;13.92;59.04;99860.72;4946025;29;20051;-80
2022/11/03 07:18:31;;;;;;;8.43;2.30;;;;;;;14.07;58.74;99856.38;4954244;28;20382;-80
2022/11/03 07:21:01;;;;;;;8.40;2.58;;;;;;;14.11;59.31;99862.06;4954566;28;20059;-80
2022/11/03 07:23:30;;;;;;;6.88;2.35;;;;;;;14.02;58.72;99860.22;4949376;28;20060;-80
2022/11/03 07:26:01;;;;;;;5.00;1.80;;;;;;;13.98;58.56;99859.31;4953418;28;20054;-81
2022/11/03 07:28:34;;;;;;;8.90;1.95;;;;;;;14.10;59.05;99858.47;4956618;28;20134;-81
2022/11/03 07:31:13;;;;;;;6.93;2.33;;;;;;;14.14;58.98;99856.59;4942225;28;20066;-81
2022/11/03 07:33:40;;;;;;;8.83;2.17;;;;;;;14.11;58.60;99867.66;4945729;28;20493;-81
2022/11/03 07:36:11;;;;;;;7.90;2.35;;;;;;;14.20;58.59;99865.56;4934954;28;20052;-81
2022/11/03 07:38:38;;;;;;;8.10;2.72;;;;;;;14.35;57.54;99884.44;4935043;29;20052;-81
2022/11/03 07:41:15;;;;;;;8.15;1.98;;;;;;;14.34;59.01;99860.41;4935355;29;20067;-81
2022/11/03 07:43:47;;;;;;;6.47;2.05;;;;;;;14.24;58.05;99854.44;4935072;29;20060;-81
2022/11/03 07:46:20;;;;;;;8.15;2.33;;;;;;;14.36;58.17;99844.03;4935168;29;20074;-81
2022/11/03 07:48:51;;;;;;;4.65;2.10;;;;;;;14.19;57.89;99842.34;4947411;28;20054;-81
2022/11/03 07:51:22;;;;;;;5.75;2.15;;;;;;;14.28;58.56;99846.97;4944838;28;20051;-80
2022/11/03 07:53:52;;;;;;;7.32;2.25;;;;;;;14.41;58.43;99842.97;4933016;29;20094;-81
2022/11/03 07:56:23;;;;;;;7.95;1.98;;;;;;;14.45;57.92;99841.09;4935611;29;20060;-81
2022/11/03 07:58:54;;;;;;;5.63;1.83;;;;;;;14.44;58.20;99836.66;4933244;29;20130;-81
2022/11/03 08:01:30;;;;;;;5.95;2.15;;;;;;;14.55;57.73;99832.22;4947100;29;20059;-80
2022/11/03 08:04:02;;;;;;;6.13;1.65;;;;;;;14.76;56.22;99828.34;4952940;28;20531;-81
2022/11/03 08:06:30;;;;;;;8.77;2.30;;;;;;;14.89;56.50;99829.94;4951309;29;20055;-80
2022/11/03 08:08:58;;;;;;;5.88;2.08;;;;;;;15.02;56.67;99828.69;4956096;28;20051;-80
2022/11/03 08:11:26;;;;;;;3.45;1.98;;;;;;;15.22;55.99;99820.34;4973297;28;20407;-81
2022/11/03 08:13:54;;;;;;;5.60;2.00;;;;;;;15.39;55.41;99822.81;4955281;28;20047;-81
2022/11/03 08:16:22;;;;;;;4.45;1.75;;;;;;;15.39;55.22;99828.44;4953685;29;20063;-81
2022/11/03 08:18:50;;;;;;;4.20;2.00;;;;;;;15.72;53.52;99816.00;4953424;29;20051;-80
2022/11/03 08:21:17;;;;;;;5.63;2.10;;;;;;;16.03;53.63;99814.28;4953427;29;20062;-81
2022/11/03 08:23:44;;;;;;;5.70;1.83;;;;;;;16.12;52.03;99812.06;4953178;29;20062;-80
2022/11/03 08:26:12;;;;;;;4.63;1.88;;;;;;;16.15;51.89;99794.50;4950434;28;20066;-80
2022/11/03 08:28:40;;;;;;;4.47;2.13;;;;;;;16.30;52.12;99795.59;4952815;28;20059;-79
2022/11/03 08:31:08;;;;;;;7.37;2.00;;;;;;;16.56;51.40;99778.03;4952531;28;20060;-81
2022/11/03 08:33:35;;;;;;;4.57;2.30;;;;;;;17.94;48.03;99782.00;4952513;29;20066;-81
2022/11/03 08:36:04;;;;;;;7.88;2.35;;;;;;;18.18;46.91;99780.69;4953450;29;20070;-81
2022/11/03 08:38:31;;;;;;;6.38;2.15;;;;;;;18.05;47.04;99786.56;4953800;29;20078;-81
2022/11/03 08:41:04;;;;;;;7.82;2.45;;;;;;;19.04;44.41;99785.28;4941089;28;20059;-81
2022/11/03 08:43:31;;;;;;;5.55;1.85;;;;;;;18.92;44.44;99770.66;4952300;28;20070;-81
2022/11/03 08:46:00;;;;;;;5.30;1.77;;;;;;;18.62;44.93;99772.34;4952617;28;20070;-81
2022/11/03 08:48:27;;;;;;;8.33;2.07;;;;;;;18.41;46.04;99769.28;4949443;28;20055;-80
2022/11/03 08:50:56;;;;;;;4.38;1.90;;;;;;;18.30;46.49;99785.28;4951783;28;20070;-80
2022/11/03 08:53:25;;;;;;;7.95;2.38;;;;;;;17.78;47.26;99779.31;4953082;28;20447;-81
2022/11/03 08:55:52;;;;;;;;;;;;;;;17.42;47.90;99782.38;4953381;29;20065;-81
2022/11/03 08:58:20;;;;;;;3.75;1.70;;;;;;;17.29;48.40;99771.72;4951408;29;20140;-81
2022/11/03 09:00:50;;;;;;;4.82;1.70;;;;;;;17.24;48.24;99761.59;4945933;29;20511;-81
2022/11/03 09:03:18;;;;;;;4.18;1.60;;;;;;;17.41;47.96;99751.81;4952151;28;20066;-81
2022/11/03 09:05:46;;;;;;;6.45;2.00;;;;;;;17.63;47.61;99759.38;4952015;28;20055;-81
2022/11/03 09:08:16;;;;;;;7.13;2.30;;;;;;;17.74;47.54;99761.53;4952755;29;20066;-81
2022/11/03 09:10:43;;;;;;;6.00;1.80;;;;;;;17.72;47.39;99759.09;4968663;28;20059;-81
2022/11/03 09:13:11;;;;;;;7.38;2.15;;;;;;;17.59;47.18;99752.06;4971968;28;20070;-80
2022/11/03 09:15:38;;;;;;;7.35;1.85;;;;;;;17.42;47.59;99740.16;4952766;28;20062;-81
2022/11/03 09:18:05;;;;;;;4.55;1.65;;;;;;;17.16;47.63;99742.97;4952550;29;20124;-80
2022/11/03 09:20:34;;;;;;;6.18;2.00;;;;;;;17.04;48.59;99733.53;4952163;28;20078;-80
2022/11/03 09:23:01;;;;;;;6.38;2.17;;;;;;;17.31;48.26;99736.38;4952094;29;20440;-81
2022/11/03 09:25:28;;;;;;;5.50;1.80;;;;;;;17.86;46.36;99719.09;4948730;28;20155;-80
2022/11/03 09:27:56;;;;;;;4.28;1.88;;;;;;;18.20;45.77;99714.25;4952378;29;20070;-81
2022/11/03 09:30:23;;;;;;;7.85;2.30;;;;;;;18.31;45.12;99734.16;4946234;28;20054;-81
2022/11/03 09:32:50;;;;;;;7.03;2.33;;;;;;;18.84;43.99;99710.53;4941089;29;20056;-81
2022/11/03 09:35:19;;;;;;;5.80;1.88;;;;;;;19.59;42.47;99707.44;4932766;29;20082;-81
2022/11/03 09:37:48;;;;;;;4.90;1.70;;;;;;;19.60;42.05;99701.41;4933080;29;20436;-81
2022/11/03 09:40:20;;;;;;;5.75;1.73;;;;;;;19.53;42.02;99694.91;4944316;28;20055;-81
2022/11/03 09:42:50;;;;;;;5.03;1.73;;;;;;;19.17;43.22;99686.19;4951062;28;20526;-81
2022/11/03 09:45:17;;;;;;;6.07;1.98;;;;;;;19.22;42.27;99697.13;4951171;28;20055;-81
2022/11/03 09:47:45;;;;;;;4.60;1.60;;;;;;;19.01;42.99;99675.19;4951803;29;20055;-81
2022/11/03 09:50:15;;;;;;;4.20;1.35;;;;;;;18.91;42.20;99667.47;4951652;29;20055;-81
2022/11/03 09:52:43;;;;;;;5.93;1.75;;;;;;;18.41;43.48;99664.97;4951951;29;20075;-81
2022/11/03 09:55:17;;;;;;;4.40;1.77;;;;;;;18.38;43.53;99651.66;4951884;29;20047;-81
2022/11/03 09:57:46;;;;;;;3.55;1.50;;;;;;;18.28;44.02;99660.81;4952007;29;20055;-81
2022/11/03 10:00:18;;;;;;;8.57;2.28;;;;;;;17.98;44.18;99644.78;4948318;28;20531;-80
2022/11/03 10:02:47;;;;;;;6.45;1.70;;;;;;;18.02;44.88;99635.16;4948599;28;20059;-80
2022/11/03 10:05:19;;;;;;;4.60;1.50;;;;;;;18.04;44.62;99637.59;4952033;28;20058;-81
2022/11/03 10:07:46;;;;;;;6.97;1.70;;;;;;;17.90;44.86;99629.78;4951662;29;20066;-81
2022/11/03 10:10:20;;;;;;;4.72;1.90;;;;;;;17.76;44.76;99630.38;4956344;28;20051;-81
2022/11/03 10:12:51;;;;;;;4.60;1.88;;;;;;;17.66;44.74;99617.00;4952927;28;20048;-81
2022/11/03 10:15:21;;;;;;;5.35;1.98;;;;;;;17.58;45.46;99616.09;4970944;28;20143;-81
2022/11/03 10:17:50;;;;;;;2.58;1.45;;;;;;;17.69;45.42;99616.22;4971229;28;20058;-81
2022/11/03 10:20:21;;;;;;;5.07;1.55;;;;;;;17.83;44.50;99622.06;4971041;28;20511;-81
2022/11/03 10:22:53;;;;;;;3.90;1.42;;;;;;;18.00;44.50;99622.66;4971012;28;20074;-81
2022/11/03 10:25:35;;;;;;;3.63;1.60;;;;;;;18.05;44.24;99617.47;4961618;28;20519;-81
2022/11/03 10:28:18;;;;;;;7.97;1.88;;;;;;;17.50;45.30;99625.66;4952205;29;20055;-81
2022/11/03 10:30:53;;;;;;;4.43;1.50;;;;;;;17.59;45.36;99609.25;4951610;28;20062;-81
2022/11/03 10:33:29;;;;;;;5.18;1.83;;;;;;;17.65;45.29;99598.47;4951984;29;20541;-81
2022/11/03 10:35:58;;;;;;;4.85;1.60;;;;;;;17.61;45.47;99575.09;4951416;29;20055;-81
2022/11/03 10:38:30;;;;;;;4.10;1.45;;;;;;;17.65;45.38;99564.69;4951570;29;20082;-81
2022/11/03 10:41:10;;;;;;;4.05;1.60;;;;;;;17.58;45.94;99554.16;4948599;28;20051;-81
2022/11/03 10:43:37;;;;;;;3.80;1.60;;;;;;;17.61;44.96;99546.94;4951722;29;20055;-81
2022/11/03 10:46:12;;;;;;;7.25;1.85;;;;;;;17.56;44.64;99544.47;4945354;29;20067;-81
2022/11/03 10:48:40;;;;;;;6.80;1.77;;;;;;;17.81;43.98;99537.09;4951398;28;20095;-81
2022/11/03 10:51:12;;;;;;;5.60;1.70;;;;;;;17.89;43.70;99545.66;4951309;28;20067;-81
2022/11/03 10:53:41;;;;;;;3.00;1.30;;;;;;;17.67;44.93;99548.22;4952345;28;20078;-81
2022/11/03 10:56:10;;;;;;;5.40;1.60;;;;;;;17.47;44.52;99535.50;4954793;28;20534;-81
2022/11/03 10:58:38;;;;;;;3.53;1.40;;;;;;;17.62;44.60;99515.56;4954910;29;20058;-81
2022/11/03 11:01:06;;;;;;;5.75;1.83;;;;;;;17.55;45.13;99511.88;4954875;29;20051;-81
2022/11/03 11:03:39;;;;;;;5.22;1.50;;;;;;;17.38;44.92;99499.22;4954704;28;20051;-80
2022/11/03 11:06:18;;;;;;;3.92;1.70;;;;;;;17.57;45.03;99501.84;4954663;29;20094;-81
2022/11/03 11:08:46;;;;;;;4.97;1.50;;;;;;;17.56;45.39;99516.31;4954128;28;20456;-81
2022/11/03 11:11:17;;;;;;;4.97;1.60;;;;;;;17.27;44.97;99507.53;4949515;28;20047;-81
2022/11/03 11:13:44;;;;;;;5.50;1.65;;;;;;;17.17;45.36;99506.19;4954030;28;20179;-81
2022/11/03 11:16:45;;;;;;;4.53;1.58;;;;;;;17.11;45.82;99487.22;4954551;29;20059;-81
2022/11/03 11:19:12;;;;;;;5.07;1.52;;;;;;;17.06;46.07;99481.94;4952222;28;20055;-81
2022/11/03 11:22:13;;;;;;;4.97;1.70;;;;;;;17.30;45.50;99460.91;4954570;28;20052;-80
2022/11/03 11:24:58;;;;;;;4.13;1.60;;;;;;;17.33;45.52;99449.69;4950586;29;20512;-80
2022/11/03 11:27:57;;;;;;;5.15;1.45;;;;;;;17.37;45.44;99442.09;4954704;29;20169;-80
2022/11/03 11:30:43;;;;;;;;;;;;;;;17.24;45.70;99440.75;4954812;29;20458;-81
2022/11/03 11:33:14;;;;;;;7.03;1.83;;;;;;;17.08;46.04;99438.16;4954196;28;19922;-81
2022/11/03 11:36:19;;;;;;;4.65;1.70;;;;;;;17.42;45.12;99432.50;4953974;28;20172;-80
2022/11/03 11:39:05;;;;;;;5.40;1.90;;;;;;;17.66;44.06;99419.88;4948747;28;20066;-80
2022/11/03 11:42:13;;;;;;;3.47;1.30;;;;;;;18.03;43.75;99405.69;4950800;28;20062;-80
2022/11/03 11:44:53;;;;;;;3.80;1.52;;;;;;;18.58;43.09;99413.31;4945459;29;20056;-80
2022/11/03 11:47:50;;;;;;;3.80;1.63;;;;;;;19.15;41.35;99406.31;4942123;28;20155;-81
2022/11/03 11:50:31;;;;;;;2.75;1.48;;;;;;;19.50;41.38;99394.28;4952146;28;20055;-81
2022/11/03 11:53:11;;;;;;;6.07;2.33;;;;;;;20.51;39.48;99378.06;4953263;29;20055;-81
2022/11/03 11:55:42;;;;;;;4.07;2.03;;;;;;;21.49;37.35;99382.09;4953438;28;20051;-80
2022/11/03 11:58:18;;;;;;;5.50;3.20;;;;;;;22.99;34.45;99376.13;4954192;29;20089;-81
2022/11/03 12:01:01;;;;;;;6.18;4.32;;;;;;;23.93;32.70;99367.06;4953154;28;20055;-81
2022/11/03 12:03:38;;;;;;;4.57;4.18;;;;;;;24.75;30.94;99356.97;4953073;28;20051;-81
2022/11/03 12:06:06;;;;;;;4.90;4.43;;;;;;;25.91;30.10;99362.50;4952930;28;20080;-81
2022/11/03 12:08:34;;;;;;;5.93;4.30;;;;;;;26.17;29.21;99359.00;4953799;29;20062;-81
2022/11/03 12:11:03;;;;;;;16.23;15.43;;;;;;;26.70;27.74;99339.56;4953501;28;20534;-81
2022/11/03 12:13:49;;;;;;;19.73;18.63;;;;;;;25.18;28.77;99343.81;4953693;29;20062;-81
2022/11/03 12:16:34;;;;;;;11.05;10.45;;;;;;;26.23;27.93;99345.78;4953424;29;20522;-81
2022/11/03 12:19:39;;;;;;;14.73;13.75;;;;;;;26.28;27.37;99354.56;4950550;28;20052;-81
2022/11/03 12:22:09;;;;;;;23.63;22.38;;;;;;;26.27;28.08;99355.84;4953184;29;20058;-81
2022/11/03 12:24:48;;;;;;;12.52;11.82;;;;;;;27.15;27.43;99344.31;4949412;29;20542;-81
2022/11/03 12:27:40;;;;;;;12.20;11.50;;;;;;;26.97;27.61;99344.88;4949861;29;20099;-81
2022/11/03 12:30:14;;;;;;;16.02;15.25;;;;;;;26.87;27.38;99335.38;4952160;28;20437;-81
2022/11/03 12:32:43;;;;;;;8.13;7.53;;;;;;;27.06;26.99;99319.28;4952853;29;20051;-81
2022/11/03 12:35:12;;;;;;;15.27;14.20;;;;;;;26.51;27.90;99324.97;4953093;29;20055;-81
2022/11/03 12:37:40;;;;;;;5.50;4.50;;;;;;;25.89;28.78;99302.22;4952688;29;20062;-81
2022/11/03 12:40:09;;;;;;;4.72;4.10;;;;;;;25.13;29.50;99305.25;4956323;28;20070;-81
2022/11/03 12:42:36;;;;;;;7.05;4.55;;;;;;;24.04;30.65;99274.63;4962677;28;20059;-81
2022/11/03 12:45:04;;;;;;;5.20;2.60;;;;;;;23.61;32.31;99269.66;4952971;29;20063;-81
2022/11/03 12:47:31;;;;;;;3.20;1.90;;;;;;;23.78;32.13;99267.78;4952904;29;20051;-81
2022/11/03 12:50:00;;;;;;;8.10;2.45;;;;;;;22.46;33.97;99262.06;4952423;29;20055;-81
2022/11/03 12:52:27;;;;;;;2.83;1.10;;;;;;;22.21;34.63;99263.13;4952614;29;20512;-81
2022/11/03 12:54:55;;;;;;;4.15;1.52;;;;;;;21.38;36.35;99282.19;4952551;29;20066;-81
2022/11/03 12:57:23;;;;;;;5.63;1.60;;;;;;;21.18;36.93;99264.94;4952212;28;20381;-81
2022/11/03 12:59:51;;;;;;;6.00;1.77;;;;;;;20.79;37.09;99237.69;4952239;28;20051;-81
2022/11/03 13:02:18;;;;;;;6.60;4.80;;;;;;;21.18;36.82;99250.78;4944852;29;20520;-81
2022/11/03 13:04:45;;;;;;;5.57;5.07;;;;;;;21.86;35.62;99233.19;4952757;28;20059;-81
2022/11/03 13:07:15;;;;;;;8.43;7.72;;;;;;;21.99;34.90;99237.06;4952756;28;20062;-81
2022/11/03 13:09:43;;;;;;;8.27;7.68;;;;;;;22.92;34.34;99212.34;4952191;29;20062;-80
2022/11/03 13:14:58;;;;;;;24.10;22.73;;;;;;;23.43;32.90;99218.81;4955062;28;20066;-81